AirNav   Everest Fuels
 
 1063 users online  

I86 Perry County Airport
New Lexington, Ohio, USA

GOING TO NEW LEXINGTON?


FAA INFORMATION EFFECTIVE 18 JUNE 2020

Location

FAA Identifier: I86
Lat/Long: 39-41-29.7480N 082-11-52.0290W
39-41.495800N 082-11.867150W
39.6915967,-82.1977858
(estimated)
Elevation: 1051.4 ft. / 320.5 m (surveyed)
Variation: 07W (2010)
From city: 2 miles S of NEW LEXINGTON, OH
Time zone: UTC -4 (UTC -5 during Standard Time)
Zip code: 43764

Airport Operations

Airport use: Open to the public
Control tower: no
ARTCC: INDIANAPOLIS CENTER
FSS: CLEVELAND FLIGHT SERVICE STATION
NOTAMs facility: CLE (NOTAM-D service available)
Attendance: MON-SAT 0800-1600
Wind indicator: lighted
Segmented circle: no
Lights: ACTVT MIRL RWY 08/26 & REIL RWY 26 - 122.8.
Beacon: white-green (lighted land airport)
Operates sunset to sunrise.

Airport Communications

CTAF/UNICOM: 122.8
  • APCH/DEP SVC PRVDD BY INDIANAPOLIS ARTCC ON FREQS 124.45/370.9 (ZANESVILLE RCAG).

Nearby radio navigation aids

VOR radial/distance  VOR name  Freq  Var
ZZVr229/20.5ZANESVILLE VOR/DME114.9506W
APEr153/32.9APPLETON VORTAC116.7006W
XUBr080/(37.4)YELLOW BUD VOR112.5005W

 
NDB name  Hdg/Dist  Freq  Var  ID
UNIVERSITY359/26.325006WUGS ..- --. ...

Airport Services

Fuel available: 100LL
AFT HRS CALL 740-605-1932.
Parking: hangars and tiedowns
Airframe service: MINOR
Powerplant service: MINOR
Bottled oxygen: NONE
Bulk oxygen: NONE

Runway Information

Runway 8/26

Dimensions: 3498 x 75 ft. / 1066 x 23 m
Surface: asphalt, in excellent condition
Runway edge lights: medium intensity
RUNWAY 8  RUNWAY 26
Latitude: 39-41.407183N39-41.583783N
Longitude: 082-12.222183W082-11.512383W
Elevation: 1051.4 ft.1041.6 ft.
Traffic pattern: leftleft
Runway heading: 079 magnetic, 072 true259 magnetic, 252 true
Markings: nonprecision, in good conditionnonprecision, in good condition
Visual slope indicator: 2-light PAPI on right (3.50 degrees glide path)2-light PAPI on left (4.00 degrees glide path)
Runway end identifier lights: noyes
Touchdown point: yes, no lightsyes, no lights
Obstructions: 8 ft. fence, 281 ft. from runway, 22 ft. right of centerline, 10:1 slope to clear
RWY 08 ROAD 0 FT FM 250 FT RIGHT, BLW RWY ELEV.
27 ft. trees, 201 ft. from runway, 150 ft. right of centerline
27 FT TREES 0-200 FT DSTC 150R.

Airport Ownership and Management from official FAA records

Ownership: Publicly-owned
Owner: PERRY COUNTY AIRPORT AUTHORITY
COURTHOUSE
NEW LEXINGTON, OH 43764
Phone 740-342-1160
Manager: LAWRENCE NASH
1870 ARPT ROAD SE
NEW LEXINGTON, OH 43764
Phone (740) 605-1932

Airport Operational Statistics

Aircraft based on the field: 13
Single engine airplanes: 13
    
Aircraft operations: avg 87/week *
88% local general aviation
11% transient general aviation
1% military
* for 12-month period ending 17 September 2019

Additional Remarks

DEER & TURKEY ON & INVOF ARPT.
FOR AFT HRS CALL AHEAD FOR SVC 740- 343-0933
FOR CD CTC COLUMBUS APCH AT 614-338-8537.

Instrument Procedures

NOTE: All procedures below are presented as PDF files. If you need a reader for these files, you should download the free Adobe Reader.

NOT FOR NAVIGATION. Please procure official charts for flight.
FAA instrument procedures published for use from 18 June 2020 at 0901Z to 16 July 2020 at 0900Z.

 
IAPs - Instrument Approach Procedures
RNAV (GPS) RWY 26   download (203KB)
VOR/DME RWY 26   download (206KB)
NOTE: Special Take-Off Minimums/Departure Procedures apply   download (164KB)

Other nearby airports with instrument procedures:

KZZV - Zanesville Municipal Airport (21 nm NE)
KLHQ - Fairfield County Airport (22 nm W)
KVTA - Newark-Heath Airport (23 nm NW)
KUNI - Ohio University Airport (29 nm S)
I10 - Noble County Airport (31 nm E)
 
Loc | Ops | Rwys | IFR | FBO | Links
Com | Nav | Svcs | Stats | Notes
Area around I86 (Perry County Airport)
 
Road maps at: MapQuest Bing Google
 
Aerial photo
WARNING: Photo may not be current or correct
Aerial photo of I86 (Perry County Airport)
Do you have a better or more recent aerial photo of Perry County Airport that you would like to share? If so, please send us your photo.

 
Sectional chart

 
Airport distance calculator
Flying to Perry County Airport? Find the distance to fly.

From to I86

Sunrise and sunset
Times for 12-Jul-2020
 Local
(UTC-4)
 Zulu
(UTC)
Morning civil twilight05:4109:41
Sunrise06:1310:13
Sunset20:5600:56
Evening civil twilight21:2801:28

Current date and time
Zulu (UTC)  12-Jul-2020 17:43:57
Local (UTC-4)  12-Jul-2020 13:43:57
 
METAR
KZZV 
21nm NE 
121653Z AUTO 21007KT 10SM SCT050 OVC110 23/19 A2983 RMK AO2 SLP096 T02330194
KLHQ 
22nm W 
121653Z AUTO 23007KT 10SM FEW021 OVC110 23/19 A2985 RMK AO2 SLP100 T02330189
KVTA 
23nm NW 
121654Z AUTO 22007KT 10SM FEW019 FEW110 25/20 A2983 RMK AO2 SLP096 T02500200
KUNI 
29nm S 
121715Z AUTO 25007KT 10SM SCT007 BKN012 BKN031 21/21 A2987 RMK AO2 T02110205
KCDI 
33nm NE 
121718Z AUTO 24003KT 10SM SCT022 SCT050 25/20 A2983 RMK AO2 T02490199
KLCK 
34nm W 
121655Z AUTO 21005KT 10SM SCT020 SCT060 OVC110 23/18 A2984 RMK AO2 T02330184
KCMH 
37nm NW 
121651Z 23005KT 10SM OVC110 24/19 A2984 RMK AO2 SLP097 T02440189
KRZT 
41nm W 
121717Z AUTO 23004KT 10SM BKN110 21/20 A2986 RMK AO2 PWINO
K4I3 
41nm N 
121715Z AUTO 22003KT 10SM CLR 26/14 A2985 RMK AO2
TAF
KZZV 
21nm NE 
121132Z 1212/1312 24004KT P6SM SCT040 FM122000 25005KT P6SM VCTS BKN040CB FM130000 32003KT P6SM BKN040
NOTAMs
Click for the latest NOTAMs
NOTAMs are issued by the DoD/FAA and will open in a separate window not controlled by AirNav.

 

 
 

FBO, Fuel Providers, and Aircraft Ground Support

  
 Business Name 
 
 Contact 
 
 Services / Description 
 
Fuel Prices
 
Comments
  
Perry County Flight Services 740-605-1932
740-475-9400
[web site]
[email]
Airport management, Aviation fuel, Aircraft parking (ramp or tiedown), Hangars, Flight training, Aircraft rental, Aerial tours / aerial sightseeing, Aerial photography, ...

More info about Perry County Flight Services
independent
100LL
FS $5.00 
 Updated 18-Jul-2018
 
   write
FS=Full service
Update Fuel Prices
 

Would you like to see your business listed on this page?

 If your business provides an interesting product or service to pilots, flight crews, aircraft, or users of the Perry County Airport, you should consider listing it here.  To start the listing process, click on the button below
 
Add a business
 

Other Pages about Perry County Airport

www.flyperry.com
 
Update a link
 
Copyright © AirNav, LLC. All rights reserved. Privacy Policy  Contact